Terminal Aerodrome Forecast
Issued by NWS

Home | Current Version | Previous Version | Text Only | Print | Product List | Glossary On
Versions: 1 2 3 4 5 6 7 8 9 10 11 12 13 14 15 16 17 18 19 20 21 22
000
FTUS42 KFFC 051726
TAFFTY
TAF
KFTY 051726Z 0518/0618 24008KT P6SM VCSH SCT035 BKN040
      TEMPO 0518/0521 5SM TSRA BKN025CB
     FM052300 21006KT P6SM SCT050 BKN100
     FM060800 24003KT 5SM BR BKN012
     FM061000 25004KT 4SM BR BKN008
     FM061400 26005KT P6SM SCT008 BKN012
     FM061600 26006KT P6SM BKN040=

USA.gov is the U.S. government's official web portal to all federal, state and local government web resources and services.